Time;durP1;ratioP1;P1;durP2;ratioP2;P2;SDS_P1;SDS_P2;PMS_P1;PMS_P2;Temp;Humidity;BMP_temperature;BMP_pressure;BME280_temperature;BME280_humidity;BME280_pressure;Samples;Min_cycle;Max_cycle;Signal;HPM_P1;HPM_P2
2022/01/12 00:00:39;;;;;;;106.68;34.33;;;;;;;-1.09;97.92;102059.44;5041607;28;20109;-87
2022/01/12 00:03:06;;;;;;;103.07;33.30;;;;;;;-1.09;97.93;102050.88;5040897;28;20041;-87
2022/01/12 00:05:32;;;;;;;126.10;35.78;;;;;;;-1.09;97.90;102046.59;5036083;28;20061;-88
2022/01/12 00:08:01;;;;;;;118.75;33.40;;;;;;;-1.08;97.63;102044.88;5038356;28;20114;-88
2022/01/12 00:10:26;;;;;;;116.90;32.88;;;;;;;-1.10;97.52;102033.72;5030062;28;20054;-87
2022/01/12 00:12:52;;;;;;;109.45;33.75;;;;;;;-1.09;97.56;102031.13;5024331;28;20044;-87
2022/01/12 00:15:19;;;;;;;126.82;34.80;;;;;;;-1.14;97.68;102037.97;5047084;28;20347;-87
2022/01/12 00:17:45;;;;;;;112.95;34.42;;;;;;;-1.16;97.71;102049.09;5026331;28;20128;-87
2022/01/12 00:20:14;;;;;;;130.57;33.72;;;;;;;-1.19;97.34;102049.03;5031560;28;20055;-86
2022/01/12 00:22:44;;;;;;;105.53;29.52;;;;;;;-1.23;97.12;102054.16;5032536;28;20041;-87
2022/01/12 00:33:15;;;;;;;81.28;29.20;;;;;;;-1.32;97.05;102058.38;5025288;28;20037;-86
2022/01/12 00:35:46;;;;;;;86.72;29.65;;;;;;;-1.36;97.09;102061.75;5027369;28;20041;-86
2022/01/12 00:38:12;;;;;;;95.72;28.60;;;;;;;-1.41;97.10;102061.69;5034088;28;20034;-86
2022/01/12 00:40:40;;;;;;;92.68;28.58;;;;;;;-1.45;97.17;102067.66;5036375;28;20065;-86
2022/01/12 00:43:06;;;;;;;104.28;32.65;;;;;;;-1.45;97.60;102057.34;5034947;28;20147;-87
2022/01/12 00:45:38;;;;;;;102.03;31.10;;;;;;;-1.41;98.02;102053.09;5039818;28;20424;-88
2022/01/12 00:48:06;;;;;;;91.35;30.27;;;;;;;-1.38;97.78;102063.44;5034207;28;20182;-88
2022/01/12 00:50:32;;;;;;;118.82;31.35;;;;;;;-1.41;97.38;102060.81;5035626;28;20030;-88
2022/01/12 00:52:58;;;;;;;96.68;28.50;;;;;;;-1.38;97.18;102066.00;5033587;28;20056;-87
2022/01/12 00:55:26;;;;;;;101.78;30.33;;;;;;;-1.40;97.26;102066.00;5035517;28;20516;-87
2022/01/12 00:57:51;;;;;;;94.40;28.02;;;;;;;-1.47;97.15;102069.34;5032459;28;20017;-87
2022/01/12 01:00:23;;;;;;;87.95;26.98;;;;;;;-1.40;97.41;102073.72;5023780;28;20033;-88
2022/01/12 01:02:48;;;;;;;97.57;29.33;;;;;;;-1.48;97.22;102062.50;5035971;28;20059;-87
2022/01/12 01:05:19;;;;;;;91.78;29.08;;;;;;;-1.49;97.49;102063.31;5034592;28;20350;-87
2022/01/12 01:07:44;;;;;;;93.95;29.63;;;;;;;-1.45;97.73;102065.06;5034449;28;20040;-88
2022/01/12 01:10:17;;;;;;;97.30;30.13;;;;;;;-1.43;97.49;102059.97;5032995;28;20029;-87
2022/01/12 01:12:45;;;;;;;77.05;28.42;;;;;;;-1.38;97.35;102051.44;5031904;28;20029;-86
2022/01/12 01:15:13;;;;;;;114.78;33.75;;;;;;;-1.43;97.18;102045.38;5027196;28;20025;-88
2022/01/12 01:25:46;;;;;;;92.18;30.60;;;;;;;-1.58;97.23;102038.38;5028461;28;20083;-87
2022/01/12 01:28:14;;;;;;;87.43;27.75;;;;;;;-1.57;97.40;102042.66;5025763;28;20033;-87
2022/01/12 01:30:42;;;;;;;60.70;25.60;;;;;;;-1.54;97.56;102047.84;5035606;28;20025;-88
2022/01/12 01:33:12;;;;;;;64.93;26.35;;;;;;;-1.54;97.33;102044.41;5031670;28;20390;-88
2022/01/12 01:35:50;;;;;;;66.95;24.77;;;;;;;-1.51;97.39;102047.88;5031959;28;20045;-86
2022/01/12 01:38:16;;;;;;;66.72;26.15;;;;;;;-1.50;97.17;102053.88;5014545;28;20137;-88
2022/01/12 01:40:42;;;;;;;73.22;26.15;;;;;;;-1.47;97.17;102049.63;5031569;28;20064;-86
2022/01/12 01:43:18;;;;;;;68.78;26.05;;;;;;;-1.45;97.34;102047.06;5026894;28;20029;-87
2022/01/12 01:53:59;;;;;;;70.00;25.73;;;;;;;-1.43;96.32;102047.97;5024764;28;20110;-88
2022/01/12 01:56:25;;;;;;;64.78;24.58;;;;;;;-1.39;96.65;102048.84;5036593;28;20159;-88
2022/01/12 01:58:51;;;;;;;61.70;22.98;;;;;;;-1.40;96.08;102058.28;5029447;28;20638;-88
2022/01/12 02:01:19;;;;;;;66.97;24.92;;;;;;;-1.38;96.15;102048.00;5038382;28;20040;-87
2022/01/12 02:03:46;;;;;;;70.95;27.08;;;;;;;-1.40;96.14;102047.13;5041514;28;20053;-88
2022/01/12 02:06:12;;;;;;;65.45;24.35;;;;;;;-1.36;95.92;102051.47;5048633;28;20086;-87
2022/01/12 02:08:37;;;;;;;64.72;24.55;;;;;;;-1.36;95.59;102052.31;5042248;28;20125;-87
2022/01/12 02:11:06;;;;;;;75.75;26.73;;;;;;;-1.32;95.46;102043.78;5035157;28;20447;-87
2022/01/12 02:13:34;;;;;;;;;;;;;;;-1.31;95.27;102047.22;5031291;28;20510;-86
2022/01/12 02:16:00;;;;;;;72.50;26.30;;;;;;;-1.29;95.67;102042.97;5019480;28;20024;-88
2022/01/12 02:40:56;;;;;;;70.65;26.35;;;;;;;-1.26;95.32;102050.69;5027917;28;20037;-89
2022/01/12 02:43:41;;;;;;;72.53;25.90;;;;;;;-1.26;95.27;102053.25;5033806;28;20461;-87
2022/01/12 02:54:29;;;;;;;83.13;28.83;;;;;;;-1.21;94.92;102051.63;5042573;28;20458;-87
2022/01/12 02:56:54;;;;;;;75.97;28.55;;;;;;;-1.14;95.22;102045.69;5018651;28;20026;-87
2022/01/12 02:59:22;;;;;;;68.63;26.17;;;;;;;-1.10;95.07;102055.16;5024805;28;20037;-87
2022/01/12 03:02:07;;;;;;;93.22;28.58;;;;;;;-1.08;95.42;102042.28;5029799;28;20055;-88
2022/01/12 03:04:35;;;;;;;79.65;27.20;;;;;;;-1.08;95.14;102045.72;5034719;28;20509;-87
2022/01/12 03:07:06;;;;;;;77.00;28.83;;;;;;;-1.08;94.92;102055.16;5032438;28;20061;-87
2022/01/12 03:09:32;;;;;;;82.15;29.52;;;;;;;-1.07;95.03;102055.19;5025012;28;20458;-88
2022/01/12 03:12:00;;;;;;;76.35;27.58;;;;;;;-1.09;95.04;102053.44;5019715;28;20049;-87
2022/01/12 03:14:25;;;;;;;81.50;29.55;;;;;;;-1.11;94.92;102048.28;5012652;28;20086;-88
2022/01/12 03:16:54;;;;;;;89.15;30.17;;;;;;;-1.12;95.21;102048.25;5019514;28;20478;-88
2022/01/12 03:19:21;;;;;;;100.38;30.58;;;;;;;-1.08;94.89;102052.59;5019555;28;20033;-88
2022/01/12 03:21:49;;;;;;;84.40;28.95;;;;;;;-1.11;94.95;102045.72;5026502;28;20445;-87
2022/01/12 03:24:14;;;;;;;88.95;29.67;;;;;;;-1.12;95.15;102040.53;5033684;28;20096;-88
2022/01/12 03:26:40;;;;;;;81.43;28.02;;;;;;;-1.11;95.12;102040.56;5036133;28;20061;-87
2022/01/12 03:29:05;;;;;;;84.82;30.15;;;;;;;-1.09;95.10;102045.72;5034423;28;20067;-87
2022/01/12 03:32:02;;;;;;;87.50;30.65;;;;;;;-1.10;94.88;102046.59;5046255;28;20048;-86
2022/01/12 03:34:32;;;;;;;80.45;27.23;;;;;;;-1.10;95.11;102041.44;5030580;28;20156;-86
2022/01/12 03:37:39;;;;;;;80.18;30.48;;;;;;;-1.09;95.03;102043.16;5035669;28;20051;-88
2022/01/12 03:40:03;;;;;;;73.15;27.65;;;;;;;-1.11;94.90;102052.56;5022060;28;20474;-87
2022/01/12 03:42:29;;;;;;;71.78;28.05;;;;;;;-1.08;95.16;102056.03;5031621;28;20049;-88
2022/01/12 03:44:57;;;;;;;72.60;29.80;;;;;;;-1.10;94.99;102050.00;5051618;28;20025;-87
2022/01/12 03:47:35;;;;;;;72.60;28.98;;;;;;;-1.07;95.01;102062.06;5031512;28;20617;-89
2022/01/12 03:50:05;;;;;;;81.13;29.63;;;;;;;-1.09;94.94;102067.16;5015838;28;20183;-87
2022/01/12 03:52:31;;;;;;;61.42;25.95;;;;;;;-1.06;95.32;102066.34;5016600;28;20413;-88
2022/01/12 03:54:56;;;;;;;76.75;29.30;;;;;;;-1.05;94.99;102078.38;5028927;28;20052;-89
2022/01/12 03:57:31;;;;;;;70.05;28.23;;;;;;;-1.06;94.89;102067.22;5022564;28;20054;-88
2022/01/12 04:00:00;;;;;;;83.15;30.73;;;;;;;-1.03;94.96;102076.69;5029304;28;20038;-88
2022/01/12 04:02:28;;;;;;;71.03;28.33;;;;;;;-1.03;94.81;102076.69;5033279;28;20063;-89
2022/01/12 04:05:12;;;;;;;79.33;30.30;;;;;;;-0.99;95.04;102068.13;5032331;28;20045;-88
2022/01/12 04:10:21;;;;;;;74.32;29.30;;;;;;;-0.98;94.64;102063.00;5043166;28;20385;-88
2022/01/12 04:12:47;;;;;;;79.38;29.70;;;;;;;-0.92;94.80;102056.19;5034627;28;20025;-87
2022/01/12 04:15:13;;;;;;;71.15;28.55;;;;;;;-0.88;94.59;102052.78;5030493;28;20025;-86
2022/01/12 04:17:40;;;;;;;66.60;26.55;;;;;;;-0.86;94.50;102059.66;5036540;28;20059;-87
2022/01/12 04:20:06;;;;;;;75.13;27.70;;;;;;;-0.82;94.36;102060.56;5028089;28;20072;-86
2022/01/12 04:25:21;;;;;;;67.72;27.35;;;;;;;-0.80;93.93;102072.59;5033444;28;20044;-87
2022/01/12 04:27:49;;;;;;;76.97;26.98;;;;;;;-0.75;94.10;102065.75;5043213;28;20029;-86
2022/01/12 04:30:25;;;;;;;70.45;28.48;;;;;;;-0.75;93.77;102068.34;5028066;28;20022;-88
2022/01/12 04:32:53;;;;;;;65.50;27.88;;;;;;;-0.73;93.72;102058.94;5025979;28;20093;-87
2022/01/12 04:35:26;;;;;;;64.28;27.27;;;;;;;-0.70;94.10;102046.91;5034402;28;20454;-88
2022/01/12 04:37:51;;;;;;;59.50;26.08;;;;;;;-0.74;93.22;102043.47;5027238;28;20033;-87
2022/01/12 04:40:17;;;;;;;67.80;28.35;;;;;;;-0.75;93.76;102046.88;5040130;28;20111;-88
2022/01/12 04:42:51;;;;;;;56.20;27.13;;;;;;;-0.76;93.86;102045.16;5019348;28;20523;-88
2022/01/12 04:50:42;;;;;;;49.95;23.15;;;;;;;-0.76;94.22;102048.59;5040654;28;20039;-87
2022/01/12 04:53:08;;;;;;;52.85;22.15;;;;;;;-0.78;94.23;102047.72;5038323;28;20040;-87
2022/01/12 04:55:36;;;;;;;51.70;24.10;;;;;;;-0.77;94.13;102052.03;5038472;28;20034;-87
2022/01/12 04:58:02;;;;;;;54.80;22.77;;;;;;;-0.75;94.40;102050.31;5037662;28;20025;-87
2022/01/12 05:00:29;;;;;;;53.45;24.48;;;;;;;-0.71;94.29;102045.19;5036819;28;20141;-87
2022/01/12 05:13:48;;;;;;;54.33;25.33;;;;;;;-0.61;94.40;102047.84;5034898;28;20044;-86
2022/01/12 05:16:14;;;;;;;58.43;24.37;;;;;;;-0.62;94.20;102053.88;5033813;28;20398;-89
2022/01/12 05:18:44;;;;;;;59.80;26.55;;;;;;;-0.58;94.10;102059.91;5020680;28;20044;-88
2022/01/12 05:21:13;;;;;;;61.92;27.48;;;;;;;-0.57;94.10;102049.59;5058449;28;20045;-87
2022/01/12 05:23:42;;;;;;;58.83;24.38;;;;;;;-0.56;94.42;102048.72;5031692;28;20067;-88
2022/01/12 05:26:10;;;;;;;61.50;25.67;;;;;;;-0.54;93.98;102052.19;5026263;28;20407;-88
2022/01/12 05:28:50;;;;;;;56.13;25.63;;;;;;;-0.52;94.21;102052.19;5035958;28;20048;-87
2022/01/12 05:31:26;;;;;;;59.03;23.73;;;;;;;-0.45;94.11;102061.69;5037898;28;20057;-89
2022/01/12 05:33:51;;;;;;;57.38;25.92;;;;;;;-0.39;93.73;102058.31;5043979;28;20366;-87
2022/01/12 05:36:18;;;;;;;56.17;25.02;;;;;;;-0.41;93.36;102066.03;5033021;28;20035;-89
2022/01/12 05:38:48;;;;;;;54.53;23.75;;;;;;;-0.34;93.87;102069.50;5026468;28;20041;-87
2022/01/12 05:41:14;;;;;;;51.92;24.20;;;;;;;-0.30;93.34;102077.28;5040994;28;20120;-88
2022/01/12 05:44:07;;;;;;;58.10;25.70;;;;;;;-0.30;93.11;102077.28;5038307;28;20063;-89
2022/01/12 05:46:36;;;;;;;59.85;24.30;;;;;;;-0.28;93.00;102080.72;5028820;28;20708;-89
2022/01/12 05:51:47;;;;;;;55.38;24.48;;;;;;;-0.20;92.51;102077.34;5025397;28;20618;-88
2022/01/12 05:54:13;;;;;;;63.40;29.35;;;;;;;-0.15;92.55;102076.53;5036920;28;20153;-88
2022/01/12 05:56:44;;;;;;;56.00;24.48;;;;;;;-0.14;92.49;102078.25;5024279;28;20516;-89
2022/01/12 05:59:14;;;;;;;59.50;25.08;;;;;;;-0.16;92.80;102079.94;5037749;28;20135;-86
2022/01/12 06:01:42;;;;;;;52.83;23.75;;;;;;;-0.12;92.59;102067.94;5024822;28;20042;-87
2022/01/12 06:04:20;;;;;;;57.75;24.63;;;;;;;-0.14;92.89;102070.50;5033849;28;20042;-88
2022/01/12 06:06:49;;;;;;;50.00;22.67;;;;;;;-0.15;92.49;102071.38;5032908;28;20072;-87
2022/01/12 06:09:17;;;;;;;57.15;24.65;;;;;;;-0.16;92.94;102079.09;5032685;28;20033;-87
2022/01/12 06:11:54;;;;;;;62.13;25.02;;;;;;;0.85;99.96;102089.81;5033422;28;20438;-88
2022/01/12 06:14:22;;;;;;;68.43;28.13;;;;;;;1.35;98.30;102081.28;5031696;28;20036;-87
2022/01/12 06:16:47;;;;;;;53.05;23.75;;;;;;;1.56;92.21;102080.41;5032489;28;20442;-86
2022/01/12 06:19:16;;;;;;;57.42;24.20;;;;;;;1.78;87.77;102084.72;5015948;28;20116;-86
2022/01/12 06:21:41;;;;;;;49.33;21.90;;;;;;;1.51;85.15;102085.59;5024068;28;20362;-86
2022/01/12 06:24:09;;;;;;;45.90;20.52;;;;;;;1.16;86.40;102089.03;5035398;28;20104;-86
2022/01/12 06:26:38;;;;;;;49.90;21.77;;;;;;;0.88;86.96;102092.41;5032952;28;20045;-87
2022/01/12 06:31:50;;;;;;;47.65;22.50;;;;;;;0.45;89.49;102085.41;5018271;28;20033;-87
2022/01/12 06:34:19;;;;;;;49.03;21.98;;;;;;;0.35;90.37;102082.81;5043875;28;20110;-86
2022/01/12 06:36:45;;;;;;;53.22;23.23;;;;;;;0.31;90.93;102081.06;5032725;28;20112;-86
2022/01/12 06:39:20;;;;;;;51.00;24.30;;;;;;;0.26;90.89;102075.88;5035416;28;20104;-86
2022/01/12 06:41:50;;;;;;;58.00;24.17;;;;;;;0.24;91.47;102067.25;5032442;28;20038;-87
2022/01/12 06:44:20;;;;;;;50.55;22.85;;;;;;;0.24;91.87;102067.25;5034294;28;20056;-86
2022/01/12 06:46:52;;;;;;;52.33;23.90;;;;;;;0.22;92.06;102082.75;5035282;28;20121;-86
2022/01/12 06:49:20;;;;;;;52.85;24.02;;;;;;;0.21;92.21;102088.75;5033713;28;20049;-87
2022/01/12 06:51:53;;;;;;;52.38;22.95;;;;;;;0.19;92.25;102080.16;5022474;28;20025;-87
2022/01/12 06:54:21;;;;;;;56.05;22.83;;;;;;;0.21;92.54;102083.59;5029850;28;20050;-89
2022/01/12 06:56:54;;;;;;;51.90;23.10;;;;;;;0.24;92.34;102086.19;5023553;28;20183;-88
2022/01/12 06:59:22;;;;;;;56.83;23.80;;;;;;;0.22;92.39;102085.34;5031483;28;20037;-87
2022/01/12 07:01:57;;;;;;;57.50;23.27;;;;;;;0.28;93.00;102086.19;5025158;28;20458;-88
2022/01/12 07:04:25;;;;;;;51.67;23.23;;;;;;;0.34;92.69;102089.69;5040085;28;20037;-85
2022/01/12 07:06:56;;;;;;;61.50;26.33;;;;;;;0.40;92.53;102096.56;5035884;28;20120;-87
2022/01/12 07:09:25;;;;;;;62.45;26.23;;;;;;;0.42;92.42;102100.03;5041772;28;20496;-88
2022/01/12 07:12:02;;;;;;;59.70;25.67;;;;;;;0.46;92.66;102099.19;5037347;28;20563;-87
2022/01/12 07:14:33;;;;;;;59.78;24.40;;;;;;;0.54;92.69;102105.22;5035002;28;20141;-86
2022/01/12 07:17:08;;;;;;;52.90;25.48;;;;;;;0.56;92.37;102113.00;5039369;28;20044;-86
2022/01/12 07:19:36;;;;;;;47.05;21.48;;;;;;;0.60;91.93;102118.19;5031094;28;20041;-86
2022/01/12 07:22:01;;;;;;;51.13;22.45;;;;;;;0.57;91.20;102120.75;5034085;28;20042;-86
2022/01/12 07:24:27;;;;;;;47.80;22.05;;;;;;;0.57;91.31;102113.00;5038063;28;20024;-87
2022/01/12 07:26:52;;;;;;;51.30;23.38;;;;;;;0.58;91.42;102116.44;5037712;28;20057;-87
2022/01/12 07:29:21;;;;;;;49.90;22.10;;;;;;;0.57;91.34;102122.47;5043635;28;20489;-88
2022/01/12 07:31:48;;;;;;;51.55;22.15;;;;;;;0.62;91.70;102116.44;5032499;28;20033;-90
2022/01/12 07:34:14;;;;;;;48.58;21.52;;;;;;;0.63;91.71;102122.47;5041537;28;20486;-89
2022/01/12 07:36:42;;;;;;;41.95;19.52;;;;;;;0.61;91.56;102127.63;5041962;28;20025;-89
2022/01/12 07:39:32;;;;;;;43.40;18.98;;;;;;;0.64;91.17;102127.66;5050901;28;20470;-87
2022/01/12 07:42:07;;;;;;;38.42;18.02;;;;;;;0.65;91.73;102131.09;5035369;28;20042;-88
2022/01/12 07:44:45;;;;;;;42.53;18.38;;;;;;;0.69;91.74;102144.00;5041872;28;20065;-89
2022/01/12 07:47:14;;;;;;;45.13;20.02;;;;;;;0.70;91.62;102137.13;5041604;28;20128;-90
2022/01/12 07:49:40;;;;;;;42.53;18.10;;;;;;;0.72;91.95;102145.75;5044527;28;20118;-87
2022/01/12 07:52:07;;;;;;;45.28;18.15;;;;;;;0.68;91.96;102147.44;5049868;28;20037;-86
2022/01/12 07:54:32;;;;;;;40.03;19.27;;;;;;;0.69;92.18;102161.22;5044350;28;20033;-86
2022/01/12 07:57:03;;;;;;;36.78;18.35;;;;;;;0.72;91.72;102163.81;5054829;28;20607;-86
2022/01/12 07:59:32;;;;;;;41.03;19.58;;;;;;;0.70;92.18;102171.56;5039496;28;20053;-88
2022/01/12 08:01:59;;;;;;;44.83;20.00;;;;;;;0.78;92.19;102175.88;5030780;28;20037;-86
2022/01/12 08:04:25;;;;;;;41.20;20.08;;;;;;;0.84;91.92;102165.59;5040083;28;20069;-88
2022/01/12 08:06:58;;;;;;;42.25;17.00;;;;;;;0.85;91.51;102159.56;5040204;28;20057;-88
2022/01/12 08:09:25;;;;;;;45.53;19.48;;;;;;;0.85;91.75;102159.56;5040333;28;20025;-88
2022/01/12 08:12:00;;;;;;;40.42;19.63;;;;;;;0.88;91.36;102165.59;5038352;28;20060;-87
2022/01/12 08:14:46;;;;;;;36.35;18.48;;;;;;;0.91;91.52;102175.09;5028919;28;20037;-90
2022/01/12 08:17:20;;;;;;;35.92;18.02;;;;;;;0.95;91.49;102166.47;5027704;28;20513;-88
2022/01/12 08:19:46;;;;;;;44.40;20.15;;;;;;;0.96;91.26;102171.66;5033892;28;20041;-88
2022/01/12 08:22:14;;;;;;;41.03;18.10;;;;;;;1.00;91.14;102163.91;5018224;28;20033;-88
2022/01/12 08:24:40;;;;;;;40.00;20.00;;;;;;;1.00;91.21;102159.59;5017737;28;20022;-89
2022/01/12 08:27:09;;;;;;;43.03;20.00;;;;;;;1.04;91.26;102156.19;5042526;28;20067;-87
2022/01/12 08:29:35;;;;;;;38.50;18.15;;;;;;;1.06;91.29;102151.88;5022620;28;20033;-88
2022/01/12 08:32:00;;;;;;;36.72;17.77;;;;;;;1.08;91.31;102142.41;5030195;28;20112;-87
2022/01/12 08:34:32;;;;;;;41.28;18.52;;;;;;;1.13;90.98;102145.88;5030395;28;20042;-88
2022/01/12 08:36:59;;;;;;;37.10;17.70;;;;;;;1.14;90.90;102134.66;5049524;28;20081;-88
2022/01/12 08:39:24;;;;;;;34.10;15.68;;;;;;;1.14;90.89;102134.66;5040554;28;20068;-88
2022/01/12 08:41:51;;;;;;;29.17;13.98;;;;;;;1.17;91.02;102133.81;5029588;28;20041;-87
2022/01/12 08:44:24;;;;;;;32.10;14.98;;;;;;;1.20;91.05;102126.94;5036060;28;20045;-88
2022/01/12 08:46:51;;;;;;;30.15;15.77;;;;;;;1.31;90.50;102123.50;5025760;28;20052;-88
2022/01/12 08:49:20;;;;;;;31.60;15.20;;;;;;;1.37;90.48;102119.22;5033468;28;20420;-88
2022/01/12 08:51:47;;;;;;;37.28;16.15;;;;;;;1.49;89.80;102127.84;5013858;28;20659;-88
2022/01/12 08:54:18;;;;;;;31.45;15.55;;;;;;;1.59;89.52;102124.38;5025311;28;20097;-89
2022/01/12 08:56:46;;;;;;;30.05;15.88;;;;;;;1.69;89.01;102134.72;5033036;28;20034;-87
2022/01/12 08:59:22;;;;;;;21.20;10.63;;;;;;;1.75;88.09;102141.63;5038087;28;20096;-88
2022/01/12 09:01:49;;;;;;;27.77;11.65;;;;;;;1.81;88.04;102153.66;5056014;28;20025;-87
2022/01/12 09:04:20;;;;;;;21.13;10.73;;;;;;;1.83;87.85;102152.81;5041752;28;20756;-89
2022/01/12 09:06:59;;;;;;;23.15;10.23;;;;;;;1.90;86.92;102161.44;5039670;28;20037;-87
2022/01/12 09:09:25;;;;;;;24.65;10.70;;;;;;;1.93;86.84;102161.44;5045415;28;20018;-88
2022/01/12 09:11:54;;;;;;;23.13;9.73;;;;;;;1.94;86.42;102160.56;5040125;28;20053;-88
2022/01/12 09:14:19;;;;;;;20.23;9.68;;;;;;;1.97;86.31;102160.56;5035342;28;20046;-86
2022/01/12 09:16:54;;;;;;;18.35;9.38;;;;;;;2.00;86.24;102167.44;5037786;28;20068;-87
2022/01/12 09:19:22;;;;;;;19.75;9.63;;;;;;;2.09;86.07;102175.22;5040483;28;20026;-88
2022/01/12 09:21:51;;;;;;;18.42;9.98;;;;;;;2.12;85.53;102176.06;5065090;28;20021;-89
2022/01/12 09:24:19;;;;;;;20.67;10.35;;;;;;;2.18;85.65;102182.94;5030726;28;20022;-88
2022/01/12 09:26:47;;;;;;;23.75;10.23;;;;;;;2.23;85.82;102183.81;5034945;28;20045;-87
2022/01/12 09:29:12;;;;;;;21.77;10.15;;;;;;;2.26;85.73;102181.19;5021424;28;20052;-88
2022/01/12 09:31:38;;;;;;;17.00;8.35;;;;;;;2.27;85.57;102182.94;5027295;28;20029;-89
2022/01/12 09:34:06;;;;;;;18.75;9.73;;;;;;;2.34;85.24;102181.22;5028111;28;20037;-88
2022/01/12 09:36:32;;;;;;;21.15;9.95;;;;;;;2.45;85.21;102188.94;5036411;28;20117;-89
2022/01/12 09:38:58;;;;;;;18.23;9.27;;;;;;;2.52;85.03;102180.28;5031967;28;20089;-88
2022/01/12 09:41:26;;;;;;;16.00;8.25;;;;;;;2.56;84.26;102176.81;5035784;28;20037;-90
2022/01/12 09:43:52;;;;;;;16.63;8.52;;;;;;;2.63;83.85;102187.16;5035134;28;20089;-88
2022/01/12 09:46:22;;;;;;;16.70;7.78;;;;;;;2.76;83.54;102192.28;5034908;28;20034;-90
2022/01/12 09:48:51;;;;;;;;;;;;;;;2.80;83.01;102196.59;5034072;28;20037;-91
2022/01/12 09:51:20;;;;;;;16.40;8.02;;;;;;;2.84;82.57;102198.31;5035284;28;19948;-89
2022/01/12 09:53:48;;;;;;;;;;;;;;;2.87;82.15;102188.78;5045134;28;20041;-87
2022/01/12 09:56:24;;;;;;;15.57;8.15;;;;;;;2.87;82.37;102191.38;5055657;28;19921;-89
2022/01/12 09:58:57;;;;;;;15.48;8.52;;;;;;;2.95;82.53;102195.66;5038416;28;20037;-89
2022/01/12 10:01:39;;;;;;;17.77;9.35;;;;;;;3.03;82.40;102191.31;5035496;28;20030;-89
2022/01/12 10:04:16;;;;;;;17.45;7.88;;;;;;;3.00;80.95;102180.94;5036206;28;20030;-89
2022/01/12 10:07:11;;;;;;;14.95;8.57;;;;;;;3.01;81.64;102183.56;5038367;28;20072;-88
2022/01/12 10:09:45;;;;;;;13.07;8.10;;;;;;;3.07;82.21;102186.09;5026837;28;20025;-89
2022/01/12 10:12:19;;;;;;;14.48;7.45;;;;;;;3.08;81.36;102180.06;5035930;28;20046;-87
2022/01/12 10:14:59;;;;;;;17.67;7.90;;;;;;;3.13;81.00;102169.66;5027803;28;20179;-88
2022/01/12 10:17:43;;;;;;;12.60;7.03;;;;;;;3.17;80.30;102163.59;5042935;28;20503;-90
2022/01/12 10:20:21;;;;;;;15.05;7.63;;;;;;;3.30;80.76;102166.94;5009437;28;20546;-89
2022/01/12 10:23:06;;;;;;;14.35;7.72;;;;;;;3.35;80.04;102163.47;5029717;28;20049;-88
2022/01/12 10:25:35;;;;;;;12.65;6.82;;;;;;;3.46;80.33;102160.81;5025802;28;20088;-87
2022/01/12 10:28:13;;;;;;;16.35;8.35;;;;;;;3.56;80.21;102162.47;5033851;28;20029;-88
2022/01/12 10:30:39;;;;;;;14.50;8.60;;;;;;;3.61;79.98;102165.88;5036340;28;20021;-89
2022/01/12 10:33:14;;;;;;;15.18;7.22;;;;;;;3.61;79.42;102159.84;5018038;28;20455;-88
2022/01/12 10:35:49;;;;;;;14.38;7.82;;;;;;;3.64;80.46;102157.22;5026665;28;20045;-88
2022/01/12 10:38:17;;;;;;;14.80;8.52;;;;;;;3.69;80.13;102154.56;5023928;28;20588;-86
2022/01/12 10:40:54;;;;;;;17.17;8.68;;;;;;;3.74;79.85;102155.38;5018426;28;20056;-86
2022/01/12 10:43:30;;;;;;;14.63;8.43;;;;;;;3.75;79.63;102159.72;5035092;28;21203;-86
2022/01/12 10:46:01;;;;;;;17.00;8.30;;;;;;;3.86;79.95;102153.56;5025176;28;20026;-86
2022/01/12 10:48:51;;;;;;;13.35;7.30;;;;;;;3.88;79.42;102146.59;5027764;28;20097;-88
2022/01/12 10:51:30;;;;;;;16.17;8.48;;;;;;;3.88;79.37;102140.56;5018528;28;20038;-88
2022/01/12 10:54:04;;;;;;;16.20;8.45;;;;;;;3.93;79.37;102145.69;5029272;28;20037;-89
2022/01/12 10:56:32;;;;;;;15.00;8.15;;;;;;;3.92;79.45;102144.84;5029637;28;21085;-88
2022/01/12 10:59:01;;;;;;;16.33;9.65;;;;;;;3.98;79.23;102149.13;5020092;28;20033;-86
2022/01/12 11:01:28;;;;;;;15.25;7.68;;;;;;;4.00;77.60;102143.03;5031990;28;20049;-87
2022/01/12 11:03:56;;;;;;;15.63;8.63;;;;;;;4.04;78.34;102128.28;5019032;28;20030;-85
2022/01/12 11:06:25;;;;;;;18.02;8.40;;;;;;;4.06;78.07;102131.75;5023601;28;20033;-87
2022/01/12 11:08:51;;;;;;;15.80;8.05;;;;;;;4.12;78.14;102131.69;5015748;28;20052;-87
2022/01/12 11:11:19;;;;;;;13.30;7.60;;;;;;;4.05;77.35;102132.63;5010019;28;20042;-89
2022/01/12 11:13:54;;;;;;;15.73;8.63;;;;;;;4.06;77.35;102122.22;5018153;28;20071;-86
2022/01/12 11:16:32;;;;;;;19.58;11.05;;;;;;;4.02;77.28;102122.28;5021593;28;20507;-88
2022/01/12 11:19:06;;;;;;;16.55;8.40;;;;;;;3.98;77.22;102131.81;5011289;28;20037;-86
2022/01/12 11:22:05;;;;;;;16.38;8.02;;;;;;;3.92;77.49;102128.41;5035019;28;20466;-89
2022/01/12 11:24:37;;;;;;;16.63;8.23;;;;;;;3.91;77.19;102135.34;5015774;28;20042;-85
2022/01/12 11:27:05;;;;;;;17.92;8.82;;;;;;;3.94;78.17;102139.66;5030477;28;20049;-87
2022/01/12 11:29:52;;;;;;;;;;;;;;;;;;;;;
2022/01/12 11:32:40;;;;;;;14.63;7.70;;;;;;;3.88;77.66;102130.19;5041936;28;20168;-87
2022/01/12 11:35:11;;;;;;;16.92;8.80;;;;;;;3.85;78.48;102130.19;5044759;28;20038;-88
2022/01/12 11:37:59;;;;;;;20.10;8.93;;;;;;;3.86;78.33;102122.41;5041777;28;20034;-89
2022/01/12 11:40:44;;;;;;;18.65;8.50;;;;;;;3.80;78.41;102124.22;5027622;28;20037;-87
2022/01/12 11:43:30;;;;;;;17.13;8.50;;;;;;;3.87;78.41;102129.31;5041558;28;20033;-87
2022/01/12 11:46:09;;;;;;;21.00;7.68;;;;;;;3.91;79.01;102121.50;5015983;28;20041;-87
2022/01/12 11:48:57;;;;;;;17.30;7.90;;;;;;;3.92;78.14;102137.06;5035369;28;20028;-88
2022/01/12 11:51:55;;;;;;;18.10;8.87;;;;;;;3.86;78.79;102132.81;5040198;28;20038;-89
2022/01/12 11:55:20;;;;;;;22.20;8.30;;;;;;;3.97;78.79;102124.91;5026908;28;20045;-89
2022/01/12 11:58:02;;;;;;;17.38;8.50;;;;;;;4.04;78.53;102120.50;5022403;28;20045;-88
2022/01/12 12:00:34;;;;;;;22.50;9.52;;;;;;;4.06;78.65;102121.34;5030886;28;20060;-87
2022/01/12 12:03:20;;;;;;;15.32;8.55;;;;;;;4.13;79.11;102120.41;5039008;28;20071;-88
2022/01/12 12:05:46;;;;;;;17.80;9.07;;;;;;;4.16;78.90;102115.19;5036239;28;20075;-87
2022/01/12 12:08:24;;;;;;;17.00;8.60;;;;;;;4.14;79.06;102116.94;5014035;28;20037;-88
2022/01/12 12:10:52;;;;;;;21.65;9.23;;;;;;;4.15;78.99;102126.44;5037944;28;20541;-88
2022/01/12 12:13:39;;;;;;;24.67;10.40;;;;;;;4.16;78.47;102135.13;5025978;28;20185;-88
2022/01/12 12:16:10;;;;;;;14.05;7.75;;;;;;;4.23;78.27;102128.97;5033145;28;20056;-88
2022/01/12 12:18:48;;;;;;;17.10;8.75;;;;;;;4.23;78.78;102132.44;5035544;28;20057;-87
2022/01/12 12:21:19;;;;;;;18.03;9.80;;;;;;;4.29;78.60;102134.09;5024942;28;20202;-88
2022/01/12 12:23:53;;;;;;;16.45;8.32;;;;;;;4.38;78.60;102136.59;5026209;28;20274;-87
2022/01/12 12:26:31;;;;;;;17.55;9.20;;;;;;;4.40;78.36;102153.00;5024516;28;20034;-87
2022/01/12 12:29:42;;;;;;;16.67;9.05;;;;;;;4.39;78.42;102133.13;5034777;28;20040;-89
2022/01/12 12:32:35;;;;;;;17.13;9.43;;;;;;;4.29;78.97;102131.50;5022369;28;20469;-88
2022/01/12 12:35:31;;;;;;;17.98;9.38;;;;;;;4.37;78.84;102127.06;5028599;28;20033;-90
2022/01/12 12:38:02;;;;;;;20.20;9.55;;;;;;;4.46;78.55;102131.31;5025201;28;20335;-90
2022/01/12 12:40:29;;;;;;;17.50;9.88;;;;;;;4.47;78.51;102118.28;5040059;28;20045;-90
2022/01/12 12:43:10;;;;;;;17.95;9.43;;;;;;;4.46;78.67;102118.31;5017537;28;20129;-88
2022/01/12 12:45:43;;;;;;;20.00;10.15;;;;;;;4.49;78.71;102132.13;5032362;28;20056;-89
2022/01/12 12:48:13;;;;;;;21.35;9.88;;;;;;;4.54;78.33;102125.13;5016811;28;20504;-89
2022/01/12 12:50:46;;;;;;;25.02;10.20;;;;;;;4.54;78.57;102132.06;5034005;28;20033;-88
2022/01/12 12:53:13;;;;;;;20.35;9.45;;;;;;;4.46;77.84;102144.31;5026221;28;20057;-89
2022/01/12 12:55:41;;;;;;;19.27;9.43;;;;;;;4.39;78.34;102148.69;5020559;28;20521;-88
2022/01/12 12:58:18;;;;;;;14.95;8.20;;;;;;;4.38;77.95;102146.13;5026982;28;20424;-87